createdAt,value
2018-04-08T00:00:51.787Z,10.43
2018-04-08T00:03:19.388Z,10.60
2018-04-08T00:05:46.927Z,10.73
2018-04-08T00:08:14.423Z,11.20
2018-04-08T00:10:42.010Z,11.07
2018-04-08T00:13:10.299Z,10.10
2018-04-08T00:15:38.542Z,8.87
2018-04-08T00:18:06.025Z,9.13
2018-04-08T00:20:34.316Z,9.70
2018-04-08T00:23:01.851Z,8.87
2018-04-08T00:25:30.105Z,9.23
2018-04-08T00:27:57.755Z,9.33
2018-04-08T00:30:25.246Z,10.68
2018-04-08T00:32:53.501Z,9.63
2018-04-08T00:35:21.066Z,9.80
2018-04-08T00:37:48.562Z,11.00
2018-04-08T00:40:16.057Z,9.90
2018-04-08T00:42:43.597Z,9.90
2018-04-08T00:45:11.091Z,10.70
2018-04-08T00:47:38.582Z,9.87
2018-04-08T00:50:06.874Z,10.60
2018-04-08T00:52:34.375Z,10.23
2018-04-08T00:55:01.874Z,10.55
2018-04-08T00:57:30.218Z,10.40
2018-04-08T00:59:57.713Z,11.50
2018-04-08T01:02:25.201Z,9.77
2018-04-08T01:04:52.975Z,10.18
2018-04-08T01:07:20.558Z,10.68
2018-04-08T01:09:48.070Z,10.20
2018-04-08T01:12:16.369Z,11.40
2018-04-08T01:14:43.858Z,11.32
2018-04-08T01:17:11.354Z,12.10
2018-04-08T01:19:39.637Z,12.87
2018-04-08T01:22:07.126Z,13.00
2018-04-08T01:24:34.610Z,13.70
2018-04-08T01:27:02.106Z,13.47
2018-04-08T01:29:29.597Z,13.80
2018-04-08T01:31:57.089Z,13.47
2018-04-08T01:34:24.598Z,13.03
2018-04-08T01:36:52.079Z,12.90
2018-04-08T01:39:19.574Z,13.90
2018-04-08T01:41:47.853Z,14.75
2018-04-08T01:44:16.102Z,15.20
2018-04-08T01:46:43.582Z,14.23
2018-04-08T01:49:11.097Z,13.67
2018-04-08T01:51:38.583Z,15.20
2018-04-08T01:54:06.069Z,14.30
2018-04-08T01:56:34.336Z,14.20
2018-04-08T01:59:02.606Z,15.13
2018-04-08T02:01:30.102Z,15.33
2018-04-08T02:03:57.598Z,15.57
2018-04-08T02:06:25.125Z,15.13
2018-04-08T02:08:52.638Z,16.30
2018-04-08T02:11:20.142Z,15.60
2018-04-08T02:13:47.658Z,16.20
2018-04-08T02:16:15.159Z,14.50
2018-04-08T02:18:42.638Z,16.37
2018-04-08T02:21:10.202Z,14.93
2018-04-08T02:23:37.719Z,14.60
2018-04-08T02:26:05.211Z,15.23
2018-04-08T02:28:32.710Z,14.70
2018-04-08T02:31:00.970Z,14.90
2018-04-08T02:33:28.467Z,14.53
2018-04-08T02:35:56.003Z,15.00
2018-04-08T02:38:24.254Z,13.90
2018-04-08T02:40:51.739Z,14.97
2018-04-08T02:43:19.244Z,13.67
2018-04-08T02:45:46.736Z,14.93
2018-04-08T02:48:14.243Z,13.57
2018-04-08T02:50:41.735Z,14.40
2018-04-08T02:53:09.216Z,15.17
2018-04-08T02:55:36.718Z,16.40
2018-04-08T02:58:04.206Z,16.80
2018-04-08T03:00:31.751Z,15.83
2018-04-08T03:02:59.242Z,17.83
2018-04-08T03:05:26.895Z,15.77
2018-04-08T03:07:54.416Z,15.50
2018-04-08T03:10:21.924Z,17.07
2018-04-08T03:12:49.546Z,16.17
2018-04-08T03:15:17.033Z,16.20
2018-04-08T03:17:44.565Z,16.77
2018-04-08T03:20:12.068Z,16.37
2018-04-08T03:22:39.566Z,18.20
2018-04-08T03:25:07.058Z,18.20
2018-04-08T03:27:34.554Z,17.00
2018-04-08T03:30:02.811Z,17.83
2018-04-08T03:32:30.320Z,18.60
2018-04-08T03:34:57.818Z,19.47
2018-04-08T03:37:25.301Z,18.47
2018-04-08T03:39:53.564Z,20.53
2018-04-08T03:42:21.055Z,21.20
2018-04-08T03:44:49.305Z,21.10
2018-04-08T03:47:16.814Z,20.97
2018-04-08T03:49:44.315Z,19.63
2018-04-08T03:52:11.838Z,21.53
2018-04-08T03:54:39.334Z,19.70
2018-04-08T03:57:06.868Z,21.40
2018-04-08T03:59:34.353Z,21.57
2018-04-08T04:02:01.834Z,20.73
2018-04-08T04:04:30.102Z,22.60
2018-04-08T04:06:58.362Z,22.13
2018-04-08T04:09:25.925Z,21.73
2018-04-08T04:11:53.561Z,21.50
2018-04-08T04:14:21.120Z,22.10
2018-04-08T04:16:49.420Z,21.63
2018-04-08T04:19:28.769Z,22.20
2018-04-08T04:27:44.021Z,23.73
2018-04-08T04:30:11.506Z,22.30
2018-04-08T04:32:39.011Z,23.62
2018-04-08T04:35:06.501Z,22.90
2018-04-08T04:37:33.999Z,22.85
2018-04-08T04:40:01.507Z,23.27
2018-04-08T04:42:28.998Z,22.37
2018-04-08T04:44:56.501Z,23.48
2018-04-08T04:47:24.022Z,23.67
2018-04-08T04:49:51.517Z,23.55
2018-04-08T04:52:19.013Z,24.23
2018-04-08T04:54:46.649Z,25.20
2018-04-08T04:57:14.142Z,25.10
2018-04-08T04:59:41.634Z,23.40
2018-04-08T05:02:09.914Z,23.62
2018-04-08T05:04:38.185Z,24.35
2018-04-08T05:07:06.453Z,23.73
2018-04-08T05:09:33.970Z,22.92
2018-04-08T05:12:01.466Z,22.43
2018-04-08T05:14:28.957Z,24.00
2018-04-08T05:16:57.245Z,23.87
2018-04-08T05:19:24.735Z,21.60
2018-04-08T05:21:52.230Z,22.92
2018-04-08T05:24:19.731Z,24.60
2018-04-08T05:26:47.239Z,22.45
2018-04-08T05:29:14.731Z,23.70
2018-04-08T05:31:42.230Z,21.07
2018-04-08T05:34:09.742Z,23.10
2018-04-08T05:36:38.005Z,22.30
2018-04-08T05:39:06.289Z,22.80
2018-04-08T05:41:34.558Z,22.10
2018-04-08T05:44:02.814Z,23.53
2018-04-08T05:46:30.314Z,23.17
2018-04-08T05:48:57.910Z,21.90
2018-04-08T05:51:25.395Z,22.77
2018-04-08T05:53:52.891Z,21.03
2018-04-08T05:56:20.373Z,20.63
2018-04-08T05:58:47.865Z,22.00
2018-04-08T06:01:15.426Z,21.17
2018-04-08T06:03:42.910Z,23.43
2018-04-08T06:06:11.267Z,22.03
2018-04-08T06:08:38.850Z,21.77
2018-04-08T06:11:06.411Z,22.80
2018-04-08T06:13:34.654Z,21.73
2018-04-08T06:16:02.222Z,20.27
2018-04-08T06:18:29.714Z,20.73
2018-04-08T06:20:57.204Z,22.30
2018-04-08T06:23:24.701Z,21.00
2018-04-08T06:25:52.958Z,20.47
2018-04-08T06:28:20.454Z,20.27
2018-04-08T06:30:47.966Z,21.37
2018-04-08T06:33:15.454Z,20.20
2018-04-08T06:35:42.930Z,19.40
2018-04-08T06:38:10.437Z,19.67
2018-04-08T06:40:37.926Z,18.83
2018-04-08T06:43:06.182Z,20.83
2018-04-08T06:45:33.690Z,19.27
2018-04-08T06:48:01.179Z,19.10
2018-04-08T06:50:28.666Z,18.37
2018-04-08T06:52:56.183Z,19.40
2018-04-08T06:55:23.677Z,17.90
2018-04-08T06:57:51.162Z,19.33
2018-04-08T07:00:19.456Z,17.67
2018-04-08T07:02:46.945Z,17.20
2018-04-08T07:05:14.443Z,18.87
2018-04-08T07:07:42.730Z,16.73
2018-04-08T07:10:10.986Z,17.67
2018-04-08T07:12:38.482Z,17.80
2018-04-08T07:15:05.978Z,16.93
2018-04-08T07:17:33.469Z,18.27
2018-04-08T07:20:00.973Z,18.13
2018-04-08T07:22:28.485Z,18.37
2018-04-08T07:24:55.970Z,16.73
2018-04-08T07:27:24.569Z,16.80
2018-04-08T07:29:52.078Z,17.27
2018-04-08T07:32:19.554Z,17.33
2018-04-08T07:34:48.609Z,16.13
2018-04-08T07:37:16.102Z,15.90
2018-04-08T07:39:44.674Z,16.23
2018-04-08T07:42:13.757Z,15.00
2018-04-08T07:44:42.081Z,15.40
2018-04-08T07:47:09.867Z,14.50
2018-04-08T07:49:37.486Z,15.57
2018-04-08T07:52:05.905Z,16.17
2018-04-08T07:54:33.485Z,16.87
2018-04-08T07:57:01.147Z,16.10
2018-04-08T07:59:28.685Z,17.10
2018-04-08T08:01:56.363Z,16.73
2018-04-08T08:04:23.931Z,17.80
2018-04-08T08:06:51.478Z,17.27
2018-04-08T08:09:19.091Z,16.00
2018-04-08T08:11:48.223Z,16.40
2018-04-08T08:14:15.736Z,15.50
2018-04-08T08:16:43.791Z,17.57
2018-04-08T08:19:11.950Z,15.83
2018-04-08T08:21:40.434Z,15.30
2018-04-08T08:24:08.479Z,16.70
2018-04-08T08:26:36.112Z,16.00
2018-04-08T08:29:04.566Z,18.30
2018-04-08T08:31:33.414Z,15.87
2018-04-08T08:34:01.418Z,15.77
2018-04-08T08:36:29.246Z,16.23
2018-04-08T08:38:57.198Z,15.20
2018-04-08T08:41:25.919Z,15.67
2018-04-08T08:43:54.824Z,14.63
2018-04-08T08:46:22.434Z,16.60
2018-04-08T08:48:50.945Z,15.97
2018-04-08T08:51:20.393Z,15.80
2018-04-08T08:53:48.145Z,15.63
2018-04-08T08:56:17.826Z,16.43
2018-04-08T08:58:48.549Z,15.70
2018-04-08T09:01:17.558Z,15.73
2018-04-08T09:03:45.619Z,16.30
2018-04-08T09:06:13.763Z,14.63
2018-04-08T09:08:43.304Z,13.47
2018-04-08T09:11:13.542Z,15.57
2018-04-08T09:13:42.820Z,14.30
2018-04-08T09:16:13.455Z,13.60
2018-04-08T09:18:45.438Z,12.10
2018-04-08T09:21:15.772Z,13.50
2018-04-08T09:23:44.344Z,13.70
2018-04-08T09:26:13.262Z,12.57
2018-04-08T09:28:44.155Z,11.30
2018-04-08T09:31:13.319Z,11.53
2018-04-08T09:33:43.677Z,11.60
2018-04-08T09:36:11.666Z,11.10
2018-04-08T09:38:40.436Z,9.20
2018-04-08T09:41:09.674Z,9.47
2018-04-08T09:43:37.533Z,8.23
2018-04-08T09:46:06.281Z,8.90
2018-04-08T09:48:34.899Z,11.40
2018-04-08T09:51:02.662Z,8.40
2018-04-08T09:53:31.175Z,9.10
2018-04-08T09:56:02.464Z,9.30
2018-04-08T09:58:41.421Z,8.63
2018-04-08T10:01:27.363Z,7.53
2018-04-08T10:03:57.867Z,6.97
2018-04-08T10:06:32.290Z,5.83
2018-04-08T10:09:05.148Z,5.87
2018-04-08T10:11:35.162Z,7.20
2018-04-08T10:14:03.014Z,6.57
2018-04-08T10:16:38.408Z,6.90
2018-04-08T10:19:07.306Z,6.00
2018-04-08T10:21:39.524Z,4.80
2018-04-08T10:24:09.576Z,5.30
2018-04-08T10:26:38.486Z,6.13
2018-04-08T10:29:14.445Z,6.00
2018-04-08T10:31:42.049Z,6.43
2018-04-08T10:34:09.598Z,6.43
2018-04-08T10:36:37.146Z,7.00
2018-04-08T10:39:04.636Z,6.07
2018-04-08T10:41:33.129Z,6.53
2018-04-08T10:44:01.644Z,7.87
2018-04-08T10:46:29.233Z,5.83
2018-04-08T10:48:57.651Z,6.70
2018-04-08T10:51:26.512Z,7.27
2018-04-08T10:53:54.160Z,6.70
2018-04-08T10:56:21.907Z,6.30
2018-04-08T10:58:54.046Z,7.17
2018-04-08T11:01:22.990Z,7.03
2018-04-08T11:03:50.647Z,5.73
2018-04-08T11:06:18.122Z,6.20
2018-04-08T11:08:45.721Z,5.40
2018-04-08T11:11:13.290Z,5.10
2018-04-08T11:13:44.032Z,6.43
2018-04-08T11:16:12.228Z,5.80
2018-04-08T11:18:39.797Z,5.10
2018-04-08T11:21:08.387Z,4.43
2018-04-08T11:23:35.987Z,5.70
2018-04-08T11:26:05.021Z,4.60
2018-04-08T11:28:32.596Z,5.10
2018-04-08T11:31:00.187Z,4.90
2018-04-08T11:33:27.781Z,5.30
2018-04-08T11:35:56.107Z,4.83
2018-04-08T11:38:23.591Z,4.50
2018-04-08T11:40:51.116Z,4.47
2018-04-08T11:43:18.704Z,3.73
2018-04-08T11:45:47.059Z,3.17
2018-04-08T11:48:14.700Z,5.17
2018-04-08T11:50:42.438Z,4.67
2018-04-08T11:53:10.159Z,4.13
2018-04-08T11:55:37.707Z,4.10
2018-04-08T11:58:05.987Z,4.10
2018-04-08T12:00:33.525Z,3.80
2018-04-08T12:03:01.044Z,3.90
2018-04-08T12:05:28.603Z,3.63
2018-04-08T12:07:56.880Z,3.70
2018-04-08T12:10:25.226Z,3.83
2018-04-08T12:12:53.185Z,4.27
2018-04-08T12:15:21.560Z,4.17
2018-04-08T12:17:49.184Z,3.73
2018-04-08T12:20:16.771Z,3.80
2018-04-08T12:22:44.424Z,3.07
2018-04-08T12:25:12.012Z,3.80
2018-04-08T12:27:39.626Z,4.00
2018-04-08T12:30:07.168Z,3.57
2018-04-08T12:32:35.487Z,3.30
2018-04-08T12:35:03.098Z,4.10
2018-04-08T12:37:30.656Z,4.13
2018-04-08T12:39:58.926Z,4.03
2018-04-08T12:42:26.486Z,3.70
2018-04-08T12:44:53.975Z,3.83
2018-04-08T12:47:22.261Z,4.10
2018-04-08T12:49:49.980Z,4.23
2018-04-08T12:52:17.602Z,4.20
2018-04-08T12:54:45.262Z,3.87
2018-04-08T12:57:12.852Z,4.27
2018-04-08T12:59:40.435Z,3.40
2018-04-08T13:02:07.926Z,4.70
2018-04-08T13:04:35.544Z,6.73
2018-04-08T13:07:03.110Z,4.13
2018-04-08T13:09:30.606Z,3.63
2018-04-08T13:11:58.168Z,6.83
2018-04-08T13:14:25.673Z,6.67
2018-04-08T13:16:53.264Z,4.33
2018-04-08T13:19:21.677Z,6.60
2018-04-08T13:21:49.343Z,5.10
2018-04-08T13:24:16.910Z,4.47
2018-04-08T13:26:44.630Z,4.50
2018-04-08T13:29:13.031Z,4.47
2018-04-08T13:31:41.364Z,4.63
2018-04-08T13:34:08.981Z,3.90
2018-04-08T13:36:36.538Z,4.43
2018-04-08T13:39:04.152Z,4.07
2018-04-08T13:41:32.529Z,4.50
2018-04-08T13:44:00.060Z,3.90
2018-04-08T13:46:27.612Z,3.30
2018-04-08T13:48:55.211Z,3.90
2018-04-08T13:51:22.778Z,3.20
2018-04-08T13:53:50.325Z,4.77
2018-04-08T13:56:18.733Z,8.43
2018-04-08T13:58:47.056Z,7.80
2018-04-08T14:01:14.679Z,4.13
2018-04-08T14:03:42.963Z,4.27
2018-04-08T14:06:10.550Z,3.20
2018-04-08T14:08:38.349Z,3.67
2018-04-08T14:11:05.911Z,3.20
2018-04-08T14:13:33.574Z,4.63
2018-04-08T14:16:01.870Z,7.57
2018-04-08T14:18:29.514Z,4.30
2018-04-08T14:20:57.039Z,2.93
2018-04-08T14:23:24.696Z,3.93
2018-04-08T14:25:52.183Z,3.37
2018-04-08T14:28:19.782Z,3.17
2018-04-08T14:30:47.343Z,3.00
2018-04-08T14:33:15.697Z,3.97
2018-04-08T14:35:44.060Z,3.70
2018-04-08T14:38:11.738Z,3.47
2018-04-08T14:40:39.481Z,6.17
2018-04-08T14:43:07.135Z,3.27
2018-04-08T14:45:34.779Z,3.43
2018-04-08T14:48:02.255Z,3.30
2018-04-08T14:50:29.762Z,4.07
2018-04-08T14:52:58.032Z,3.43
2018-04-08T14:55:26.367Z,3.30
2018-04-08T14:57:53.918Z,3.10
2018-04-08T15:00:21.567Z,2.40
2018-04-08T15:02:49.342Z,3.63
2018-04-08T15:05:16.872Z,3.13
2018-04-08T15:07:44.601Z,2.70
2018-04-08T15:10:12.190Z,3.37
2018-04-08T15:12:39.783Z,3.53
2018-04-08T15:15:09.058Z,3.07
2018-04-08T15:17:39.240Z,3.73
2018-04-08T15:20:10.449Z,2.57
2018-04-08T15:22:38.738Z,2.67
2018-04-08T15:25:08.986Z,3.00
2018-04-08T15:27:40.284Z,3.60
2018-04-08T15:30:10.216Z,3.40
2018-04-08T15:32:37.734Z,3.37
2018-04-08T15:35:06.637Z,3.17
2018-04-08T15:37:35.519Z,3.03
2018-04-08T15:40:04.051Z,3.50
2018-04-08T15:42:31.794Z,3.57
2018-04-08T15:44:59.407Z,3.00
2018-04-08T15:47:28.220Z,3.40
2018-04-08T15:49:56.174Z,3.70
2018-04-08T15:52:24.648Z,3.10
2018-04-08T15:54:52.592Z,3.87
2018-04-08T15:57:20.326Z,3.20
2018-04-08T15:59:48.517Z,2.50
2018-04-08T16:02:16.389Z,2.93
2018-04-08T16:04:44.212Z,2.90
2018-04-08T16:07:12.039Z,3.47
2018-04-08T16:09:39.838Z,3.47
2018-04-08T16:12:09.908Z,3.20
2018-04-08T16:14:38.341Z,3.30
2018-04-08T16:17:06.108Z,3.00
2018-04-08T16:19:33.761Z,3.00
2018-04-08T16:22:02.312Z,2.80
2018-04-08T16:24:29.881Z,2.87
2018-04-08T16:26:57.646Z,4.60
2018-04-08T16:29:27.265Z,3.30
2018-04-08T16:31:55.692Z,3.70
2018-04-08T16:34:23.495Z,4.10
2018-04-08T16:36:51.387Z,3.93
2018-04-08T16:39:21.663Z,4.53
2018-04-08T16:41:49.571Z,4.10
2018-04-08T16:44:19.084Z,4.57
2018-04-08T16:46:46.835Z,4.00
2018-04-08T16:49:15.278Z,4.10
2018-04-08T16:51:43.735Z,4.60
2018-04-08T16:54:11.388Z,4.10
2018-04-08T16:56:39.064Z,4.10
2018-04-08T16:59:06.598Z,4.30
2018-04-08T17:01:36.135Z,4.37
2018-04-08T17:04:04.038Z,4.50
2018-04-08T17:06:32.462Z,4.57
2018-04-08T17:09:00.658Z,4.10
2018-04-08T17:11:29.630Z,4.90
2018-04-08T17:13:57.393Z,4.90
2018-04-08T17:16:25.533Z,4.03
2018-04-08T17:18:53.163Z,4.40
2018-04-08T17:21:20.688Z,3.50
2018-04-08T17:23:48.420Z,3.67
2018-04-08T17:26:17.507Z,3.70
2018-04-08T17:28:45.391Z,3.97
2018-04-08T17:31:13.738Z,4.63
2018-04-08T17:33:42.011Z,4.77
2018-04-08T17:36:09.808Z,4.80
2018-04-08T17:38:45.752Z,5.30
2018-04-08T17:41:14.046Z,5.60
2018-04-08T17:43:42.110Z,7.50
2018-04-08T17:46:11.019Z,9.83
2018-04-08T17:48:38.681Z,9.87
2018-04-08T17:51:06.402Z,12.60
2018-04-08T17:53:34.808Z,11.30
2018-04-08T17:56:06.020Z,13.47
2018-04-08T17:58:33.866Z,14.00
2018-04-08T18:01:02.141Z,14.27
2018-04-08T18:03:30.553Z,14.20
2018-04-08T18:05:58.338Z,13.07
2018-04-08T18:08:27.513Z,14.67
2018-04-08T18:10:55.300Z,14.17
2018-04-08T18:13:28.001Z,15.13
2018-04-08T18:15:56.210Z,14.80
2018-04-08T18:18:24.393Z,13.13
2018-04-08T18:20:56.526Z,14.60
2018-04-08T18:23:25.140Z,16.00
2018-04-08T18:25:53.178Z,15.57
2018-04-08T18:28:21.823Z,17.37
2018-04-08T18:30:49.709Z,15.70
2018-04-08T18:33:17.283Z,15.87
2018-04-08T18:35:45.632Z,16.50
2018-04-08T18:38:13.571Z,16.90
2018-04-08T18:40:41.146Z,17.50
2018-04-08T18:43:09.166Z,18.07
2018-04-08T18:45:36.768Z,18.93
2018-04-08T18:48:05.200Z,18.30
2018-04-08T18:50:33.038Z,21.37
2018-04-08T18:53:00.889Z,25.30
2018-04-08T18:55:28.498Z,24.27
2018-04-08T18:57:56.402Z,26.97
2018-04-08T19:00:24.093Z,28.40
2018-04-08T19:02:52.027Z,29.00
2018-04-08T19:05:20.884Z,28.77
2018-04-08T19:07:48.483Z,28.37
2018-04-08T19:10:16.074Z,29.27
2018-04-08T19:12:44.600Z,28.00
2018-04-08T19:15:18.853Z,29.13
2018-04-08T19:17:52.106Z,28.93
2018-04-08T19:20:20.976Z,25.90
2018-04-08T19:22:49.263Z,28.13
2018-04-08T19:25:18.742Z,27.63
2018-04-08T19:27:47.379Z,28.47
2018-04-08T19:30:21.296Z,28.83
2018-04-08T19:32:49.721Z,29.47
2018-04-08T19:35:18.955Z,26.77
2018-04-08T19:37:47.832Z,29.33
2018-04-08T19:40:16.818Z,30.30
2018-04-08T19:42:45.175Z,31.30
2018-04-08T19:45:12.718Z,30.83
2018-04-08T19:47:40.266Z,31.40
2018-04-08T19:50:07.793Z,29.33
2018-04-08T19:52:35.394Z,32.10
2018-04-08T19:55:02.916Z,32.30
2018-04-08T19:57:31.458Z,30.70
2018-04-08T19:59:59.452Z,30.37
2018-04-08T20:02:27.799Z,32.07
2018-04-08T20:04:55.727Z,28.50
2018-04-08T20:07:23.275Z,29.13
2018-04-08T20:09:52.051Z,29.63
2018-04-08T20:12:20.520Z,28.97
2018-04-08T20:14:48.071Z,30.47
2018-04-08T20:17:17.451Z,31.03
2018-04-08T20:19:45.024Z,30.23
2018-04-08T20:22:12.919Z,31.63
2018-04-08T20:24:40.511Z,30.97
2018-04-08T20:27:08.972Z,31.40
2018-04-08T20:29:36.486Z,27.97
2018-04-08T20:32:04.058Z,31.00
2018-04-08T20:34:31.647Z,30.30
2018-04-08T20:36:59.191Z,27.50
2018-04-08T20:39:26.786Z,28.27
2018-04-08T20:41:54.354Z,31.57
2018-04-08T20:44:22.243Z,31.90
2018-04-08T20:46:49.780Z,31.67
2018-04-08T20:49:17.604Z,33.47
2018-04-08T20:51:45.172Z,33.33
2018-04-08T20:54:12.828Z,32.97
2018-04-08T20:56:40.450Z,32.63
2018-04-08T20:59:08.015Z,34.33
2018-04-08T21:01:35.589Z,35.87
2018-04-08T21:04:03.210Z,35.07
2018-04-08T21:06:30.777Z,38.13
2018-04-08T21:08:58.498Z,35.97
2018-04-08T21:11:26.106Z,38.33
2018-04-08T21:13:53.641Z,36.10
2018-04-08T21:16:21.177Z,38.07
2018-04-08T21:18:50.538Z,37.23
2018-04-08T21:21:18.164Z,36.47
2018-04-08T21:23:45.719Z,37.70
2018-04-08T21:26:13.271Z,38.10
2018-04-08T21:28:40.831Z,40.30
2018-04-08T21:31:08.350Z,40.93
2018-04-08T21:33:35.934Z,39.17
2018-04-08T21:36:03.516Z,40.47
2018-04-08T21:38:31.885Z,36.57
2018-04-08T21:41:00.240Z,37.60
2018-04-08T21:43:29.279Z,38.47
2018-04-08T21:45:56.869Z,39.70
2018-04-08T21:48:24.468Z,39.43
2018-04-08T21:50:52.062Z,38.53
2018-04-08T21:53:19.626Z,40.50
2018-04-08T21:55:47.175Z,40.30
2018-04-08T21:58:14.860Z,41.43
2018-04-08T22:00:42.484Z,39.40
2018-04-08T22:03:10.016Z,38.73
2018-04-08T22:05:37.586Z,38.97
2018-04-08T22:08:05.171Z,39.13
2018-04-08T22:10:32.674Z,42.20
2018-04-08T22:13:00.494Z,40.07
2018-04-08T22:15:28.051Z,42.00
2018-04-08T22:17:55.710Z,41.50
2018-04-08T22:20:24.039Z,40.43
2018-04-08T22:22:51.618Z,41.43
2018-04-08T22:25:19.176Z,44.00
2018-04-08T22:27:46.915Z,41.77
2018-04-08T22:30:14.543Z,42.80
2018-04-08T22:32:42.238Z,45.13
2018-04-08T22:35:09.892Z,43.60
2018-04-08T22:37:37.423Z,41.50
2018-04-08T22:40:05.062Z,40.30
2018-04-08T22:42:33.394Z,41.47
2018-04-08T22:45:00.887Z,42.30
2018-04-08T22:47:28.510Z,43.50
2018-04-08T22:49:56.176Z,44.20
2018-04-08T22:52:23.755Z,41.73
2018-04-08T22:54:51.394Z,43.80
2018-04-08T22:57:18.994Z,44.10
2018-04-08T22:59:46.482Z,42.80
2018-04-08T23:02:14.770Z,45.80
2018-04-08T23:04:42.355Z,44.83
2018-04-08T23:07:09.945Z,47.87
2018-04-08T23:09:37.453Z,46.77
2018-04-08T23:12:05.027Z,48.47
2018-04-08T23:14:32.593Z,48.57
2018-04-08T23:17:00.620Z,51.43
2018-04-08T23:19:28.294Z,50.60
2018-04-08T23:21:56.004Z,47.27
2018-04-08T23:24:23.748Z,48.10
2018-04-08T23:26:52.295Z,47.40
2018-04-08T23:29:20.647Z,49.63
2018-04-08T23:31:48.270Z,49.70
2018-04-08T23:34:15.912Z,48.93
2018-04-08T23:36:43.570Z,49.30
2018-04-08T23:39:11.948Z,52.07
2018-04-08T23:41:39.494Z,51.77
2018-04-08T23:44:07.210Z,50.10
2018-04-08T23:46:34.831Z,51.57
2018-04-08T23:49:03.250Z,51.77
2018-04-08T23:51:30.966Z,51.33
2018-04-08T23:53:58.539Z,51.10
2018-04-08T23:56:26.111Z,55.00
2018-04-08T23:58:53.699Z,57.70
